createdAt,value
2022-11-28T00:03:25.915Z,86.24
2022-11-28T00:08:29.393Z,86.71
2022-11-28T00:13:32.782Z,87.16
2022-11-28T00:18:36.558Z,87.07
2022-11-28T00:23:40.610Z,86.88
2022-11-28T00:28:44.230Z,86.70
2022-11-28T00:33:48.614Z,86.80
2022-11-28T00:38:52.293Z,86.85
2022-11-28T00:43:55.936Z,87.10
2022-11-28T00:48:59.695Z,87.26
2022-11-28T00:54:04.994Z,87.36
2022-11-28T00:59:08.263Z,87.34
2022-11-28T01:04:14.503Z,87.27
2022-11-28T01:09:21.617Z,87.13
2022-11-28T01:14:26.159Z,87.20
2022-11-28T01:19:29.527Z,87.25
2022-11-28T01:24:35.660Z,87.24
2022-11-28T01:29:39.281Z,87.11
2022-11-28T01:34:42.788Z,86.84
2022-11-28T01:39:46.157Z,86.67
2022-11-28T01:44:49.649Z,86.44
2022-11-28T01:49:54.658Z,86.29
2022-11-28T01:55:01.318Z,86.27
2022-11-28T02:00:09.231Z,86.35
2022-11-28T02:05:14.062Z,86.37
2022-11-28T02:10:23.091Z,86.24
2022-11-28T02:15:45.167Z,86.30
2022-11-28T02:21:17.438Z,86.33
2022-11-28T02:26:51.952Z,86.44
2022-11-28T02:32:26.567Z,86.41
2022-11-28T02:38:12.006Z,86.28
2022-11-28T02:43:31.916Z,85.81
2022-11-28T02:48:41.645Z,85.68
2022-11-28T02:53:47.128Z,85.52
2022-11-28T02:58:50.294Z,85.28
2022-11-28T03:04:00.170Z,85.21
2022-11-28T03:09:31.716Z,85.32
2022-11-28T03:14:44.464Z,85.40
2022-11-28T03:20:09.807Z,85.37
2022-11-28T03:25:33.076Z,85.11
2022-11-28T03:30:51.788Z,85.11
2022-11-28T03:36:03.944Z,85.08
2022-11-28T03:41:18.895Z,85.01
2022-11-28T03:46:25.974Z,85.13
2022-11-28T03:51:50.115Z,85.36
2022-11-28T03:57:08.887Z,85.34
2022-11-28T04:02:28.730Z,85.54
2022-11-28T04:07:47.835Z,85.40
2022-11-28T04:13:11.160Z,85.58
2022-11-28T04:18:35.992Z,85.64
2022-11-28T04:23:42.650Z,85.73
2022-11-28T04:28:48.744Z,86.02
2022-11-28T04:33:56.703Z,86.51
2022-11-28T04:39:02.459Z,86.78
2022-11-28T04:44:13.926Z,87.01
2022-11-28T04:49:17.253Z,86.82
2022-11-28T04:54:52.860Z,87.02
2022-11-28T04:59:57.376Z,86.93
2022-11-28T05:05:00.766Z,86.34
2022-11-28T05:10:06.604Z,86.62
2022-11-28T05:15:10.977Z,86.63
2022-11-28T05:20:14.755Z,86.48
2022-11-28T05:25:18.403Z,86.59
2022-11-28T05:30:21.637Z,86.11
2022-11-28T05:35:25.687Z,85.88
2022-11-28T05:40:28.943Z,85.95
2022-11-28T05:45:32.157Z,85.88
2022-11-28T05:50:39.644Z,85.84
2022-11-28T05:55:44.141Z,85.83
2022-11-28T06:00:47.310Z,85.95
2022-11-28T06:05:50.508Z,85.98
2022-11-28T06:10:59.588Z,85.99
2022-11-28T06:16:02.849Z,85.71
2022-11-28T06:21:09.681Z,85.57
2022-11-28T06:26:16.439Z,85.53
2022-11-28T06:31:22.556Z,85.39
2022-11-28T06:36:26.617Z,85.38
2022-11-28T06:41:29.872Z,85.67
2022-11-28T06:46:33.307Z,85.97
2022-11-28T06:51:36.648Z,86.39
2022-11-28T06:56:41.221Z,86.17
2022-11-28T07:01:45.529Z,86.38
2022-11-28T07:06:52.419Z,86.45
2022-11-28T07:11:56.020Z,86.37
2022-11-28T07:17:00.515Z,86.65
2022-11-28T07:22:04.019Z,86.85
2022-11-28T07:27:07.270Z,86.70
2022-11-28T07:32:10.926Z,86.47
2022-11-28T07:37:16.398Z,86.67
2022-11-28T07:42:19.649Z,86.43
2022-11-28T07:47:22.930Z,86.39
2022-11-28T07:52:26.142Z,86.53
2022-11-28T07:57:30.994Z,86.77
2022-11-28T08:02:35.184Z,87.00
2022-11-28T08:07:39.820Z,86.51
2022-11-28T08:12:43.827Z,86.59
2022-11-28T08:17:47.102Z,86.89
2022-11-28T08:22:50.331Z,86.42
2022-11-28T08:27:53.790Z,86.58
2022-11-28T08:32:57.312Z,86.55
2022-11-28T08:38:02.182Z,86.30
2022-11-28T08:43:05.840Z,86.15
2022-11-28T08:48:09.009Z,85.93
2022-11-28T08:53:12.279Z,85.91
2022-11-28T08:58:15.693Z,85.86
2022-11-28T09:03:20.882Z,85.76
2022-11-28T09:08:24.259Z,85.77
2022-11-28T09:13:27.914Z,85.70
2022-11-28T09:18:31.498Z,85.47
2022-11-28T09:23:35.669Z,85.56
2022-11-28T09:28:39.075Z,85.44
2022-11-28T09:33:43.944Z,85.49
2022-11-28T09:38:47.223Z,85.23
2022-11-28T09:43:55.104Z,85.24
2022-11-28T09:49:03.447Z,84.74
2022-11-28T09:54:12.798Z,84.88
2022-11-28T09:59:27.710Z,84.81
2022-11-28T10:04:40.737Z,84.74
2022-11-28T10:10:02.854Z,84.71
2022-11-28T10:15:24.925Z,84.38
2022-11-28T10:20:34.614Z,83.42
2022-11-28T10:25:56.860Z,82.32
2022-11-28T10:31:09.270Z,81.49
2022-11-28T10:36:21.807Z,81.03
2022-11-28T10:42:12.916Z,80.67
2022-11-28T10:47:45.743Z,80.65
2022-11-28T10:53:04.670Z,81.00
2022-11-28T10:58:10.614Z,80.85
2022-11-28T11:03:17.656Z,81.16
2022-11-28T11:08:29.853Z,81.71
2022-11-28T11:13:35.981Z,81.46
2022-11-28T11:18:46.852Z,81.30
2022-11-28T11:24:11.281Z,81.12
2022-11-28T11:29:33.040Z,81.53
2022-11-28T11:34:45.357Z,80.83
2022-11-28T11:39:51.378Z,80.87
2022-11-28T11:44:55.646Z,81.14
2022-11-28T11:50:06.653Z,81.38
2022-11-28T11:55:15.622Z,80.89
2022-11-28T12:00:23.753Z,80.49
2022-11-28T12:05:41.757Z,80.77
2022-11-28T12:11:07.861Z,80.76
2022-11-28T12:16:40.812Z,80.93
2022-11-28T12:21:47.056Z,80.84
2022-11-28T12:27:12.430Z,80.93
2022-11-28T12:32:34.395Z,80.47
2022-11-28T12:38:12.318Z,81.11
2022-11-28T12:43:42.888Z,81.67
2022-11-28T12:48:54.701Z,82.00
2022-11-28T12:54:21.909Z,82.18
2022-11-28T12:59:35.789Z,82.26
2022-11-28T13:05:16.040Z,82.37
2022-11-28T13:10:32.017Z,82.28
2022-11-28T13:15:48.216Z,81.96
2022-11-28T13:20:57.271Z,81.60
2022-11-28T13:26:16.264Z,81.45
2022-11-28T13:31:28.082Z,81.48
2022-11-28T13:47:50.255Z,80.93
2022-11-28T13:53:04.494Z,80.78
2022-11-28T13:58:32.383Z,80.98
2022-11-28T14:03:46.992Z,81.16
2022-11-28T14:09:21.052Z,81.26
2022-11-28T14:14:42.984Z,81.53
2022-11-28T14:20:13.088Z,81.92
2022-11-28T14:25:34.117Z,82.19
2022-11-28T14:30:41.490Z,82.20
2022-11-28T14:35:51.314Z,82.47
2022-11-28T14:41:05.522Z,82.49
2022-11-28T14:46:28.974Z,82.43
2022-11-28T14:51:48.287Z,82.34
2022-11-28T14:56:58.241Z,82.32
2022-11-28T15:02:09.154Z,82.35
2022-11-28T15:07:25.250Z,82.32
2022-11-28T15:12:39.620Z,82.18
2022-11-28T15:17:46.417Z,82.07
2022-11-28T15:22:49.612Z,82.20
2022-11-28T15:27:54.710Z,81.94
2022-11-28T15:33:01.572Z,82.19
2022-11-28T15:38:05.759Z,82.31
2022-11-28T15:43:15.107Z,82.42
2022-11-28T15:48:50.016Z,82.53
2022-11-28T15:53:53.555Z,82.67
2022-11-28T15:58:56.826Z,82.72
2022-11-28T16:04:04.616Z,82.85
2022-11-28T16:09:26.723Z,82.88
2022-11-28T16:14:44.488Z,82.75
2022-11-28T16:19:51.850Z,82.84
2022-11-28T16:24:57.551Z,83.23
2022-11-28T16:30:03.979Z,83.48
2022-11-28T16:35:12.646Z,83.43
2022-11-28T16:40:21.033Z,83.36
2022-11-28T16:45:33.811Z,83.47
2022-11-28T16:50:37.606Z,83.34
2022-11-28T16:55:44.438Z,83.48
2022-11-28T17:00:58.609Z,83.66
2022-11-28T17:06:02.277Z,83.70
2022-11-28T17:11:05.709Z,83.76
2022-11-28T17:16:17.607Z,83.76
2022-11-28T17:21:37.859Z,83.83
2022-11-28T17:26:41.080Z,84.03
2022-11-28T17:31:47.065Z,84.14
2022-11-28T17:36:51.641Z,84.29
2022-11-28T17:41:57.298Z,84.27
2022-11-28T17:47:02.144Z,84.14
2022-11-28T17:52:05.445Z,84.24
2022-11-28T17:57:09.856Z,84.46
2022-11-28T18:02:16.339Z,84.63
2022-11-28T18:07:21.887Z,84.65
2022-11-28T18:12:25.202Z,84.65
2022-11-28T18:17:28.510Z,84.73
2022-11-28T18:22:32.346Z,84.72
2022-11-28T18:27:35.769Z,84.78
2022-11-28T18:32:39.069Z,84.75
2022-11-28T18:37:44.500Z,84.82
2022-11-28T18:42:48.110Z,84.90
2022-11-28T18:47:53.777Z,84.82
2022-11-28T18:53:03.396Z,84.99
2022-11-28T18:58:06.664Z,84.90
2022-11-28T19:03:09.881Z,85.00
2022-11-28T19:08:13.253Z,84.94
2022-11-28T19:13:16.492Z,84.90
2022-11-28T19:18:19.775Z,84.94
2022-11-28T19:23:23.028Z,85.03
2022-11-28T19:28:26.352Z,85.18
2022-11-28T19:33:29.747Z,85.17
2022-11-28T19:38:37.561Z,85.33
2022-11-28T19:43:41.856Z,85.28
2022-11-28T19:48:45.250Z,85.39
2022-11-28T19:53:48.730Z,85.34
2022-11-28T19:58:52.589Z,85.33
2022-11-28T20:03:55.865Z,85.22
2022-11-28T20:09:02.949Z,85.14
2022-11-28T20:14:19.000Z,84.97
2022-11-28T20:19:23.249Z,84.75
2022-11-28T20:24:26.686Z,84.67
2022-11-28T20:29:30.176Z,84.60
2022-11-28T20:34:33.522Z,84.55
2022-11-28T20:39:37.027Z,84.58
2022-11-28T20:44:41.218Z,84.58
2022-11-28T20:49:44.772Z,84.52
2022-11-28T20:54:53.410Z,84.28
2022-11-28T20:59:57.822Z,84.09
2022-11-28T21:05:13.060Z,84.23
2022-11-28T21:10:16.508Z,84.15
2022-11-28T21:15:19.797Z,84.04
2022-11-28T21:20:23.062Z,83.94
2022-11-28T21:25:30.613Z,83.89
2022-11-28T21:30:39.054Z,83.82
2022-11-28T21:35:42.288Z,83.70
2022-11-28T21:40:54.752Z,83.71
2022-11-28T21:46:03.302Z,83.58
2022-11-28T21:51:07.400Z,83.33
2022-11-28T21:56:11.612Z,83.31
2022-11-28T22:01:15.402Z,83.10
2022-11-28T22:06:21.933Z,82.86
2022-11-28T22:11:25.587Z,82.80
2022-11-28T22:16:30.033Z,82.63
2022-11-28T22:26:56.946Z,82.59
2022-11-28T22:32:00.177Z,82.47
2022-11-28T22:37:03.468Z,82.45
2022-11-28T22:42:07.029Z,82.43
2022-11-28T22:47:10.242Z,82.20
2022-11-28T22:52:13.503Z,82.40
2022-11-28T22:57:16.967Z,82.44
2022-11-28T23:02:20.229Z,82.36
2022-11-28T23:07:23.604Z,82.32
2022-11-28T23:12:26.858Z,82.07
2022-11-28T23:17:30.300Z,81.84
2022-11-28T23:22:35.041Z,81.69
2022-11-28T23:27:38.329Z,81.60
2022-11-28T23:32:41.534Z,81.59
2022-11-28T23:37:44.674Z,81.61
2022-11-28T23:42:47.802Z,81.54
2022-11-28T23:47:51.065Z,81.52
2022-11-28T23:52:54.784Z,81.48
2022-11-28T23:57:58.020Z,81.44
